sensor_id;sensor_type;location;lat;lon;timestamp;pressure;altitude;pressure_sealevel;temperature;humidity
49055;BME280;35405;52.344;14.530;2023-10-09T00:00:11;101704.59;;;10.42;85.48
49055;BME280;35405;52.344;14.530;2023-10-09T00:02:55;101705.47;;;10.48;86.29
49055;BME280;35405;52.344;14.530;2023-10-09T00:05:20;101698.53;;;10.43;85.90
49055;BME280;35405;52.344;14.530;2023-10-09T00:07:49;101691.53;;;10.41;85.68
49055;BME280;35405;52.344;14.530;2023-10-09T00:10:14;101695.91;;;10.45;86.27
49055;BME280;35405;52.344;14.530;2023-10-09T00:12:42;101685.41;;;10.42;86.16
49055;BME280;35405;52.344;14.530;2023-10-09T00:15:08;101688.06;;;10.40;86.91
49055;BME280;35405;52.344;14.530;2023-10-09T00:17:37;101686.28;;;10.42;86.46
49055;BME280;35405;52.344;14.530;2023-10-09T00:20:04;101694.16;;;10.45;86.59
49055;BME280;35405;52.344;14.530;2023-10-09T00:22:34;101689.78;;;10.41;86.35
49055;BME280;35405;52.344;14.530;2023-10-09T00:25:03;101681.94;;;10.51;86.40
49055;BME280;35405;52.344;14.530;2023-10-09T00:27:46;101673.22;;;10.39;85.94
49055;BME280;35405;52.344;14.530;2023-10-09T00:30:13;101669.75;;;10.34;87.10
49055;BME280;35405;52.344;14.530;2023-10-09T00:32:42;101668.03;;;10.30;86.41
49055;BME280;35405;52.344;14.530;2023-10-09T00:35:16;101656.69;;;10.22;86.16
49055;BME280;35405;52.344;14.530;2023-10-09T00:37:59;101649.69;;;10.18;86.34
49055;BME280;35405;52.344;14.530;2023-10-09T00:40:32;101647.94;;;10.22;86.39
49055;BME280;35405;52.344;14.530;2023-10-09T00:42:59;101653.19;;;10.17;86.29
49055;BME280;35405;52.344;14.530;2023-10-09T00:45:30;101641.84;;;10.07;85.96
49055;BME280;35405;52.344;14.530;2023-10-09T00:47:57;101631.41;;;10.15;86.12
49055;BME280;35405;52.344;14.530;2023-10-09T00:50:24;101617.47;;;10.11;85.66
49055;BME280;35405;52.344;14.530;2023-10-09T00:52:52;101607.03;;;10.02;84.21
49055;BME280;35405;52.344;14.530;2023-10-09T00:55:19;101612.22;;;10.07;84.68
49055;BME280;35405;52.344;14.530;2023-10-09T00:58:14;101602.66;;;10.03;84.26
49055;BME280;35405;52.344;14.530;2023-10-09T01:00:48;101603.53;;;10.03;84.17
49055;BME280;35405;52.344;14.530;2023-10-09T01:03:18;101608.75;;;10.00;83.88
49055;BME280;35405;52.344;14.530;2023-10-09T01:05:46;101611.38;;;9.96;82.62
49055;BME280;35405;52.344;14.530;2023-10-09T01:08:18;101617.50;;;10.01;82.28
49055;BME280;35405;52.344;14.530;2023-10-09T01:10:51;101613.97;;;10.05;81.11
49055;BME280;35405;52.344;14.530;2023-10-09T01:13:21;101600.91;;;10.05;79.95
49055;BME280;35405;52.344;14.530;2023-10-09T01:15:52;101594.81;;;10.00;79.85
49055;BME280;35405;52.344;14.530;2023-10-09T01:18:17;101591.31;;;10.08;81.80
49055;BME280;35405;52.344;14.530;2023-10-09T01:20:44;101592.19;;;10.09;83.21
49055;BME280;35405;52.344;14.530;2023-10-09T01:23:10;101586.09;;;10.08;83.65
49055;BME280;35405;52.344;14.530;2023-10-09T01:25:36;101582.59;;;10.11;84.33
49055;BME280;35405;52.344;14.530;2023-10-09T01:28:09;101577.38;;;10.05;83.63
49055;BME280;35405;52.344;14.530;2023-10-09T01:30:34;101579.13;;;10.09;84.32
49055;BME280;35405;52.344;14.530;2023-10-09T01:32:59;101585.19;;;10.20;84.30
49055;BME280;35405;52.344;14.530;2023-10-09T01:35:36;101585.19;;;10.31;84.87
49055;BME280;35405;52.344;14.530;2023-10-09T01:38:11;101580.84;;;10.24;84.51
49055;BME280;35405;52.344;14.530;2023-10-09T01:40:39;101572.13;;;10.18;84.42
49055;BME280;35405;52.344;14.530;2023-10-09T01:43:04;101570.41;;;10.08;84.60
49055;BME280;35405;52.344;14.530;2023-10-09T01:45:30;101565.16;;;10.22;85.42
49055;BME280;35405;52.344;14.530;2023-10-09T01:48:06;101563.41;;;10.24;85.33
49055;BME280;35405;52.344;14.530;2023-10-09T01:50:33;101548.59;;;10.15;85.53
49055;BME280;35405;52.344;14.530;2023-10-09T01:53:00;101538.19;;;10.02;85.50
49055;BME280;35405;52.344;14.530;2023-10-09T01:55:31;101536.44;;;9.98;86.38
49055;BME280;35405;52.344;14.530;2023-10-09T01:58:05;101532.09;;;9.95;86.46
49055;BME280;35405;52.344;14.530;2023-10-09T02:00:41;101519.91;;;9.88;86.26
49055;BME280;35405;52.344;14.530;2023-10-09T02:03:14;101516.44;;;9.83;86.58
49055;BME280;35405;52.344;14.530;2023-10-09T02:05:41;101509.47;;;9.71;86.71
49055;BME280;35405;52.344;14.530;2023-10-09T02:08:06;101514.72;;;9.73;86.89
49055;BME280;35405;52.344;14.530;2023-10-09T02:10:37;101509.50;;;9.70;86.86
49055;BME280;35405;52.344;14.530;2023-10-09T02:13:09;101497.31;;;9.61;86.45
49055;BME280;35405;52.344;14.530;2023-10-09T02:15:39;101489.47;;;9.61;87.02
49055;BME280;35405;52.344;14.530;2023-10-09T02:18:07;101489.47;;;9.56;86.82
49055;BME280;35405;52.344;14.530;2023-10-09T02:20:50;101465.97;;;9.44;87.16
49055;BME280;35405;52.344;14.530;2023-10-09T02:23:37;101445.13;;;9.32;87.07
49055;BME280;35405;52.344;14.530;2023-10-09T02:26:22;101439.91;;;9.33;87.52
49055;BME280;35405;52.344;14.530;2023-10-09T02:28:54;101432.06;;;9.21;86.97
49055;BME280;35405;52.344;14.530;2023-10-09T02:31:49;101437.31;;;9.24;86.94
49055;BME280;35405;52.344;14.530;2023-10-09T02:34:20;101428.56;;;9.28;87.38
49055;BME280;35405;52.344;14.530;2023-10-09T02:36:50;101428.59;;;9.22;86.92
49055;BME280;35405;52.344;14.530;2023-10-09T02:39:23;101426.00;;;9.16;86.92
49055;BME280;35405;52.344;14.530;2023-10-09T02:41:51;101429.47;;;9.21;87.10
49055;BME280;35405;52.344;14.530;2023-10-09T02:44:19;101427.72;;;9.32;87.53
49055;BME280;35405;52.344;14.530;2023-10-09T02:46:49;101421.63;;;9.30;86.70
49055;BME280;35405;52.344;14.530;2023-10-09T02:49:15;101415.53;;;9.31;87.23
49055;BME280;35405;52.344;14.530;2023-10-09T02:51:41;101416.41;;;9.24;86.73
49055;BME280;35405;52.344;14.530;2023-10-09T02:54:10;101412.03;;;9.22;86.47
49055;BME280;35405;52.344;14.530;2023-10-09T02:56:48;101412.06;;;9.16;86.18
49055;BME280;35405;52.344;14.530;2023-10-09T02:59:34;101407.69;;;9.27;86.75
49055;BME280;35405;52.344;14.530;2023-10-09T03:01:59;101405.94;;;9.33;86.76
49055;BME280;35405;52.344;14.530;2023-10-09T03:04:27;101405.03;;;9.44;87.57
49055;BME280;35405;52.344;14.530;2023-10-09T03:06:54;101403.31;;;9.43;87.26
49055;BME280;35405;52.344;14.530;2023-10-09T03:09:22;101394.59;;;9.36;86.91
49055;BME280;35405;52.344;14.530;2023-10-09T03:11:54;101407.66;;;9.41;87.71
49055;BME280;35405;52.344;14.530;2023-10-09T03:14:20;101402.50;;;9.24;87.03
49055;BME280;35405;52.344;14.530;2023-10-09T03:16:46;101403.34;;;9.30;87.54
49055;BME280;35405;52.344;14.530;2023-10-09T03:19:13;101398.09;;;9.35;87.47
49055;BME280;35405;52.344;14.530;2023-10-09T03:21:38;101399.00;;;9.32;87.39
49055;BME280;35405;52.344;14.530;2023-10-09T03:24:03;101399.88;;;9.31;86.81
49055;BME280;35405;52.344;14.530;2023-10-09T03:26:31;101405.91;;;9.43;87.84
49055;BME280;35405;52.344;14.530;2023-10-09T03:28:56;101405.06;;;9.33;86.93
49055;BME280;35405;52.344;14.530;2023-10-09T03:31:26;101405.97;;;9.30;87.39
49055;BME280;35405;52.344;14.530;2023-10-09T03:33:51;101398.09;;;9.36;87.44
49055;BME280;35405;52.344;14.530;2023-10-09T03:36:17;101391.16;;;9.26;86.95
49055;BME280;35405;52.344;14.530;2023-10-09T03:38:42;101379.88;;;9.18;86.39
49055;BME280;35405;52.344;14.530;2023-10-09T03:41:07;101382.44;;;9.29;86.74
49055;BME280;35405;52.344;14.530;2023-10-09T03:43:37;101367.63;;;9.40;87.29
49055;BME280;35405;52.344;14.530;2023-10-09T03:46:04;101366.72;;;9.52;87.45
49055;BME280;35405;52.344;14.530;2023-10-09T03:48:30;101352.78;;;9.54;87.32
49055;BME280;35405;52.344;14.530;2023-10-09T03:51:00;101346.69;;;9.48;87.56
49055;BME280;35405;52.344;14.530;2023-10-09T03:53:38;101343.25;;;9.40;86.78
49055;BME280;35405;52.344;14.530;2023-10-09T03:56:06;101342.41;;;9.27;86.82
49055;BME280;35405;52.344;14.530;2023-10-09T03:58:40;101343.25;;;9.35;87.57
49055;BME280;35405;52.344;14.530;2023-10-09T04:01:08;101329.34;;;9.38;87.57
49055;BME280;35405;52.344;14.530;2023-10-09T04:03:38;101325.00;;;9.32;87.05
49055;BME280;35405;52.344;14.530;2023-10-09T04:06:03;101304.94;;;9.35;87.21
49055;BME280;35405;52.344;14.530;2023-10-09T04:08:30;101291.06;;;9.21;86.89
49055;BME280;35405;52.344;14.530;2023-10-09T04:10:58;101277.13;;;9.30;87.55
49055;BME280;35405;52.344;14.530;2023-10-09T04:13:27;101265.78;;;9.37;87.73
49055;BME280;35405;52.344;14.530;2023-10-09T04:16:00;101263.09;;;9.54;88.36
49055;BME280;35405;52.344;14.530;2023-10-09T04:18:35;101250.94;;;9.44;87.15
49055;BME280;35405;52.344;14.530;2023-10-09T04:21:03;101243.97;;;9.46;87.64
49055;BME280;35405;52.344;14.530;2023-10-09T04:23:45;101238.00;;;9.25;87.35
49055;BME280;35405;52.344;14.530;2023-10-09T04:26:35;101254.47;;;9.33;88.10
49055;BME280;35405;52.344;14.530;2023-10-09T04:29:02;101257.06;;;9.41;87.98
49055;BME280;35405;52.344;14.530;2023-10-09T04:31:27;101294.50;;;9.42;88.11
49055;BME280;35405;52.344;14.530;2023-10-09T04:33:57;101320.56;;;9.51;88.53
49055;BME280;35405;52.344;14.530;2023-10-09T04:36:41;101329.28;;;9.50;88.05
49055;BME280;35405;52.344;14.530;2023-10-09T04:39:14;101329.25;;;9.56;87.71
49055;BME280;35405;52.344;14.530;2023-10-09T04:41:41;101305.72;;;9.62;88.29
49055;BME280;35405;52.344;14.530;2023-10-09T04:44:06;101292.63;;;9.73;88.35
49055;BME280;35405;52.344;14.530;2023-10-09T04:47:00;101273.44;;;9.75;88.44
49055;BME280;35405;52.344;14.530;2023-10-09T04:49:35;101268.19;;;9.77;88.46
49055;BME280;35405;52.344;14.530;2023-10-09T04:52:18;101254.34;;;9.58;87.98
49055;BME280;35405;52.344;14.530;2023-10-09T04:54:50;101264.88;;;9.46;87.97
49055;BME280;35405;52.344;14.530;2023-10-09T04:57:47;101271.75;;;9.57;88.79
49055;BME280;35405;52.344;14.530;2023-10-09T05:00:34;101269.09;;;9.70;88.81
49055;BME280;35405;52.344;14.530;2023-10-09T05:03:00;101256.88;;;9.75;88.55
49055;BME280;35405;52.344;14.530;2023-10-09T05:05:49;101247.41;;;9.58;88.12
49055;BME280;35405;52.344;14.530;2023-10-09T05:08:23;101242.09;;;9.71;88.56
49055;BME280;35405;52.344;14.530;2023-10-09T05:10:55;101243.81;;;9.76;88.83
49055;BME280;35405;52.344;14.530;2023-10-09T05:13:24;101231.63;;;9.75;88.45
49055;BME280;35405;52.344;14.530;2023-10-09T05:18:55;101243.06;;;9.50;88.58
49055;BME280;35405;52.344;14.530;2023-10-09T05:21:34;101254.38;;;9.55;88.96
49055;BME280;35405;52.344;14.530;2023-10-09T05:24:09;101260.50;;;9.52;88.60
49055;BME280;35405;52.344;14.530;2023-10-09T05:26:37;101260.47;;;9.54;88.63
49055;BME280;35405;52.344;14.530;2023-10-09T05:29:16;101257.03;;;9.47;88.39
49055;BME280;35405;52.344;14.530;2023-10-09T05:34:40;101254.38;;;9.55;88.69
49055;BME280;35405;52.344;14.530;2023-10-09T05:37:23;101246.56;;;9.53;88.62
49055;BME280;35405;52.344;14.530;2023-10-09T05:39:57;101235.19;;;9.62;88.50
49055;BME280;35405;52.344;14.530;2023-10-09T05:42:43;101247.31;;;9.69;88.69
49055;BME280;35405;52.344;14.530;2023-10-09T05:45:10;101251.72;;;9.61;88.24
49055;BME280;35405;52.344;14.530;2023-10-09T05:47:41;101256.09;;;9.56;88.65
49055;BME280;35405;52.344;14.530;2023-10-09T05:50:25;101245.59;;;9.68;88.79
49055;BME280;35405;52.344;14.530;2023-10-09T05:52:51;101235.13;;;9.74;88.52
49055;BME280;35405;52.344;14.530;2023-10-09T05:55:16;101234.31;;;9.61;88.24
49055;BME280;35405;52.344;14.530;2023-10-09T05:57:51;101241.34;;;9.47;88.13
49055;BME280;35405;52.344;14.530;2023-10-09T06:00:35;101226.59;;;9.35;88.54
49055;BME280;35405;52.344;14.530;2023-10-09T06:03:18;101224.75;;;9.56;89.28
49055;BME280;35405;52.344;14.530;2023-10-09T06:05:44;101213.44;;;9.55;88.79
49055;BME280;35405;52.344;14.530;2023-10-09T06:08:18;101199.56;;;9.44;88.77
49055;BME280;35405;52.344;14.530;2023-10-09T06:10:52;101196.94;;;9.52;88.92
49055;BME280;35405;52.344;14.530;2023-10-09T06:13:32;101218.63;;;9.63;88.93
49055;BME280;35405;52.344;14.530;2023-10-09T06:16:06;101215.19;;;9.55;88.50
49055;BME280;35405;52.344;14.530;2023-10-09T06:18:44;101229.91;;;9.68;89.23
49055;BME280;35405;52.344;14.530;2023-10-09T06:21:19;101233.22;;;9.91;89.04
49055;BME280;35405;52.344;14.530;2023-10-09T06:24:02;101223.47;;;10.13;89.10
49055;BME280;35405;52.344;14.530;2023-10-09T06:26:39;101224.28;;;10.26;88.88
49055;BME280;35405;52.344;14.530;2023-10-09T06:29:16;101231.16;;;10.35;89.14
49055;BME280;35405;52.344;14.530;2023-10-09T06:31:42;101227.75;;;10.28;88.07
49055;BME280;35405;52.344;14.530;2023-10-09T06:34:23;101223.34;;;10.33;88.77
49055;BME280;35405;52.344;14.530;2023-10-09T06:37:01;101225.22;;;10.16;87.90
49055;BME280;35405;52.344;14.530;2023-10-09T06:39:42;101222.59;;;10.13;88.37
49055;BME280;35405;52.344;14.530;2023-10-09T06:42:23;101219.19;;;10.05;88.57
49055;BME280;35405;52.344;14.530;2023-10-09T06:45:04;101217.50;;;9.98;88.48
49055;BME280;35405;52.344;14.530;2023-10-09T06:47:34;101209.75;;;9.87;88.25
49055;BME280;35405;52.344;14.530;2023-10-09T06:50:18;101200.25;;;9.72;88.60
49055;BME280;35405;52.344;14.530;2023-10-09T06:52:47;101211.53;;;9.83;89.27
49055;BME280;35405;52.344;14.530;2023-10-09T06:55:37;101202.66;;;10.03;89.09
49055;BME280;35405;52.344;14.530;2023-10-09T06:58:13;101200.88;;;10.06;88.72
49055;BME280;35405;52.344;14.530;2023-10-09T07:00:41;101207.81;;;10.12;88.97
49055;BME280;35405;52.344;14.530;2023-10-09T07:03:24;101206.16;;;10.02;88.37
49055;BME280;35405;52.344;14.530;2023-10-09T07:06:09;101205.41;;;9.84;88.13
49055;BME280;35405;52.344;14.530;2023-10-09T07:08:49;101202.69;;;10.01;88.70
49055;BME280;35405;52.344;14.530;2023-10-09T07:11:44;101211.28;;;10.15;88.58
49055;BME280;35405;52.344;14.530;2023-10-09T07:14:12;101199.91;;;10.23;88.87
49055;BME280;35405;52.344;14.530;2023-10-09T07:16:59;101195.63;;;10.11;87.36
49055;BME280;35405;52.344;14.530;2023-10-09T07:19:29;101192.94;;;10.23;88.15
49055;BME280;35405;52.344;14.530;2023-10-09T07:22:02;101186.81;;;10.24;87.52
49055;BME280;35405;52.344;14.530;2023-10-09T07:24:41;101194.63;;;10.30;88.06
49055;BME280;35405;52.344;14.530;2023-10-09T07:27:09;101193.78;;;10.25;87.28
49055;BME280;35405;52.344;14.530;2023-10-09T07:29:39;101201.63;;;10.22;87.91
49055;BME280;35405;52.344;14.530;2023-10-09T07:32:13;101196.38;;;10.27;87.11
49055;BME280;35405;52.344;14.530;2023-10-09T07:34:45;101212.09;;;10.25;86.69
49055;BME280;35405;52.344;14.530;2023-10-09T07:37:20;101213.03;;;10.15;85.52
49055;BME280;35405;52.344;14.530;2023-10-09T07:39:47;101227.69;;;10.37;86.50
49055;BME280;35405;52.344;14.530;2023-10-09T07:42:22;101219.78;;;10.42;85.16
49055;BME280;35405;52.344;14.530;2023-10-09T07:45:19;101216.44;;;10.26;84.44
49055;BME280;35405;52.344;14.530;2023-10-09T07:47:47;101221.81;;;10.08;83.61
49055;BME280;35405;52.344;14.530;2023-10-09T07:50:25;101221.72;;;10.14;84.60
49055;BME280;35405;52.344;14.530;2023-10-09T07:52:55;101209.50;;;10.24;84.47
49055;BME280;35405;52.344;14.530;2023-10-09T07:55:39;101218.28;;;10.07;84.00
49055;BME280;35405;52.344;14.530;2023-10-09T07:58:10;101221.06;;;9.86;83.87
49055;BME280;35405;52.344;14.530;2023-10-09T08:00:36;101224.53;;;9.94;84.27
49055;BME280;35405;52.344;14.530;2023-10-09T08:03:14;101225.38;;;9.93;84.30
49055;BME280;35405;52.344;14.530;2023-10-09T08:05:49;101232.38;;;9.86;84.54
49055;BME280;35405;52.344;14.530;2023-10-09T08:08:14;101240.28;;;9.83;84.14
49055;BME280;35405;52.344;14.530;2023-10-09T08:11:08;101235.03;;;9.85;84.70
49055;BME280;35405;52.344;14.530;2023-10-09T08:13:52;101236.69;;;9.94;84.67
49055;BME280;35405;52.344;14.530;2023-10-09T08:16:27;101245.19;;;10.22;85.25
49055;BME280;35405;52.344;14.530;2023-10-09T08:19:02;101235.59;;;10.28;84.32
49055;BME280;35405;52.344;14.530;2023-10-09T08:21:45;101232.19;;;10.15;84.07
49055;BME280;35405;52.344;14.530;2023-10-09T08:24:30;101233.16;;;10.02;83.11
49055;BME280;35405;52.344;14.530;2023-10-09T08:27:06;101233.03;;;10.17;83.54
49055;BME280;35405;52.344;14.530;2023-10-09T08:29:49;101237.28;;;10.34;83.17
49055;BME280;35405;52.344;14.530;2023-10-09T08:32:14;101230.31;;;10.34;82.57
49055;BME280;35405;52.344;14.530;2023-10-09T08:35:03;101227.59;;;10.47;82.49
49055;BME280;35405;52.344;14.530;2023-10-09T08:37:31;101226.59;;;10.60;82.04
49055;BME280;35405;52.344;14.530;2023-10-09T08:39:56;101236.06;;;10.70;82.03
49055;BME280;35405;52.344;14.530;2023-10-09T08:42:21;101239.47;;;10.80;81.82
49055;BME280;35405;52.344;14.530;2023-10-09T08:44:48;101237.00;;;10.64;80.22
49055;BME280;35405;52.344;14.530;2023-10-09T08:47:14;101242.84;;;10.89;81.08
49055;BME280;35405;52.344;14.530;2023-10-09T08:49:39;101252.47;;;10.87;81.72
49055;BME280;35405;52.344;14.530;2023-10-09T08:52:05;101257.09;;;10.61;80.02
49055;BME280;35405;52.344;14.530;2023-10-09T08:54:31;101258.19;;;10.37;80.06
49055;BME280;35405;52.344;14.530;2023-10-09T08:56:58;101253.75;;;10.47;81.28
49055;BME280;35405;52.344;14.530;2023-10-09T08:59:23;101257.25;;;10.42;81.00
49055;BME280;35405;52.344;14.530;2023-10-09T09:01:50;101246.75;;;10.49;81.53
49055;BME280;35405;52.344;14.530;2023-10-09T09:07:01;101241.34;;;10.64;81.53
49055;BME280;35405;52.344;14.530;2023-10-09T09:09:27;101241.44;;;10.55;80.88
49055;BME280;35405;52.344;14.530;2023-10-09T09:11:55;101236.94;;;10.69;81.20
49055;BME280;35405;52.344;14.530;2023-10-09T09:14:20;101246.41;;;10.82;81.35
49055;BME280;35405;52.344;14.530;2023-10-09T09:17:01;101239.53;;;10.70;80.31
49055;BME280;35405;52.344;14.530;2023-10-09T09:19:32;101232.72;;;10.57;80.71
49055;BME280;35405;52.344;14.530;2023-10-09T09:21:57;101237.84;;;10.68;80.80
49055;BME280;35405;52.344;14.530;2023-10-09T09:24:36;101243.16;;;10.59;80.36
49055;BME280;35405;52.344;14.530;2023-10-09T09:27:03;101242.34;;;10.54;79.64
49055;BME280;35405;52.344;14.530;2023-10-09T09:32:01;101238.34;;;10.99;79.97
49055;BME280;35405;52.344;14.530;2023-10-09T09:34:44;101231.28;;;11.06;80.29
49055;BME280;35405;52.344;14.530;2023-10-09T09:37:12;101226.00;;;11.12;80.63
49055;BME280;35405;52.344;14.530;2023-10-09T09:39:43;101226.22;;;10.92;78.85
49055;BME280;35405;52.344;14.530;2023-10-09T09:42:09;101233.31;;;10.82;79.63
49055;BME280;35405;52.344;14.530;2023-10-09T09:44:38;101235.81;;;10.94;79.90
49055;BME280;35405;52.344;14.530;2023-10-09T09:47:13;101233.09;;;11.02;79.77
49055;BME280;35405;52.344;14.530;2023-10-09T09:49:41;101231.16;;;11.18;79.72
49055;BME280;35405;52.344;14.530;2023-10-09T09:52:07;101231.84;;;11.32;79.62
49055;BME280;35405;52.344;14.530;2023-10-09T09:54:38;101222.22;;;11.36;79.15
49055;BME280;35405;52.344;14.530;2023-10-09T09:57:03;101223.94;;;11.37;78.43
49055;BME280;35405;52.344;14.530;2023-10-09T09:59:39;101222.97;;;11.44;79.03
49055;BME280;35405;52.344;14.530;2023-10-09T10:02:05;101212.09;;;11.71;78.46
49055;BME280;35405;52.344;14.530;2023-10-09T10:04:31;101213.06;;;11.64;79.15
49055;BME280;35405;52.344;14.530;2023-10-09T10:07:00;101211.56;;;11.46;78.00
49055;BME280;35405;52.344;14.530;2023-10-09T10:09:34;101212.06;;;11.73;79.48
49055;BME280;35405;52.344;14.530;2023-10-09T10:12:03;101206.59;;;11.90;78.34
49055;BME280;35405;52.344;14.530;2023-10-09T10:14:51;101204.88;;;11.87;77.34
49055;BME280;35405;52.344;14.530;2023-10-09T10:17:17;101217.34;;;11.70;77.30
49055;BME280;35405;52.344;14.530;2023-10-09T10:22:29;101219.00;;;11.77;78.14
49055;BME280;35405;52.344;14.530;2023-10-09T10:24:55;101217.91;;;11.93;77.46
49055;BME280;35405;52.344;14.530;2023-10-09T10:27:22;101228.09;;;12.12;79.03
49055;BME280;35405;52.344;14.530;2023-10-09T10:32:56;101225.50;;;12.10;77.14
49055;BME280;35405;52.344;14.530;2023-10-09T10:35:22;101222.56;;;12.28;77.96
49055;BME280;35405;52.344;14.530;2023-10-09T10:37:58;101222.34;;;12.42;78.13
49055;BME280;35405;52.344;14.530;2023-10-09T10:40:29;101229.22;;;12.49;78.72
49055;BME280;35405;52.344;14.530;2023-10-09T10:43:03;101230.94;;;12.50;77.67
49055;BME280;35405;52.344;14.530;2023-10-09T10:45:37;101216.38;;;12.32;76.19
49055;BME280;35405;52.344;14.530;2023-10-09T10:48:08;101223.72;;;12.10;76.00
49055;BME280;35405;52.344;14.530;2023-10-09T10:50:47;101219.09;;;12.28;76.95
49055;BME280;35405;52.344;14.530;2023-10-09T10:53:13;101215.31;;;12.43;75.21
49055;BME280;35405;52.344;14.530;2023-10-09T10:56:00;101219.56;;;12.50;75.05
49055;BME280;35405;52.344;14.530;2023-10-09T10:58:37;101202.31;;;12.83;77.22
49055;BME280;35405;52.344;14.530;2023-10-09T11:01:18;101196.22;;;12.81;76.60
49055;BME280;35405;52.344;14.530;2023-10-09T11:03:44;101201.81;;;13.07;76.72
49055;BME280;35405;52.344;14.530;2023-10-09T11:06:28;101197.72;;;12.94;75.52
49055;BME280;35405;52.344;14.530;2023-10-09T11:09:06;101194.97;;;12.55;74.15
49055;BME280;35405;52.344;14.530;2023-10-09T11:11:54;101198.25;;;12.17;72.88
49055;BME280;35405;52.344;14.530;2023-10-09T11:14:44;101194.41;;;11.87;72.87
49055;BME280;35405;52.344;14.530;2023-10-09T11:17:14;101191.91;;;11.78;73.60
49055;BME280;35405;52.344;14.530;2023-10-09T11:19:48;101189.66;;;12.09;75.15
49055;BME280;35405;52.344;14.530;2023-10-09T11:22:17;101180.81;;;12.16;74.99
49055;BME280;35405;52.344;14.530;2023-10-09T11:25:00;101175.00;;;11.97;73.23
49055;BME280;35405;52.344;14.530;2023-10-09T11:27:39;101169.34;;;12.22;73.51
49055;BME280;35405;52.344;14.530;2023-10-09T11:30:05;101166.16;;;12.52;75.06
49055;BME280;35405;52.344;14.530;2023-10-09T11:32:46;101160.81;;;12.57;73.31
49055;BME280;35405;52.344;14.530;2023-10-09T11:35:14;101153.41;;;12.77;74.83
49055;BME280;35405;52.344;14.530;2023-10-09T11:37:56;101149.22;;;12.67;73.04
49055;BME280;35405;52.344;14.530;2023-10-09T11:40:28;101143.75;;;12.79;74.47
49055;BME280;35405;52.344;14.530;2023-10-09T11:42:59;101137.41;;;12.88;73.58
49055;BME280;35405;52.344;14.530;2023-10-09T11:45:26;101140.28;;;12.77;74.11
49055;BME280;35405;52.344;14.530;2023-10-09T11:47:55;101130.47;;;12.85;74.46
49055;BME280;35405;52.344;14.530;2023-10-09T11:53:08;101143.44;;;12.93;74.90
49055;BME280;35405;52.344;14.530;2023-10-09T11:55:34;101134.03;;;13.25;76.09
49055;BME280;35405;52.344;14.530;2023-10-09T11:58:00;101135.19;;;13.50;73.65
49055;BME280;35405;52.344;14.530;2023-10-09T12:00:27;101146.47;;;13.55;74.38
49055;BME280;35405;52.344;14.530;2023-10-09T12:02:55;101157.53;;;13.31;72.84
49055;BME280;35405;52.344;14.530;2023-10-09T12:05:21;101155.78;;;13.31;72.62
49055;BME280;35405;52.344;14.530;2023-10-09T12:07:47;101162.88;;;13.28;73.76
49055;BME280;35405;52.344;14.530;2023-10-09T12:10:23;101153.41;;;13.21;73.20
49055;BME280;35405;52.344;14.530;2023-10-09T12:12:53;101144.91;;;13.06;74.20
49055;BME280;35405;52.344;14.530;2023-10-09T12:15:19;101142.13;;;13.14;74.22
49055;BME280;35405;52.344;14.530;2023-10-09T12:17:46;101150.72;;;13.22;73.26
49055;BME280;35405;52.344;14.530;2023-10-09T12:20:15;101151.25;;;13.39;73.76
49055;BME280;35405;52.344;14.530;2023-10-09T12:22:56;101142.31;;;13.45;74.73
49055;BME280;35405;52.344;14.530;2023-10-09T12:25:22;101152.41;;;13.63;73.30
49055;BME280;35405;52.344;14.530;2023-10-09T12:27:48;101153.56;;;13.87;73.64
49055;BME280;35405;52.344;14.530;2023-10-09T12:30:13;101143.00;;;13.90;70.80
49055;BME280;35405;52.344;14.530;2023-10-09T12:32:38;101136.72;;;14.28;72.84
49055;BME280;35405;52.344;14.530;2023-10-09T12:35:04;101129.31;;;14.43;73.49
49055;BME280;35405;52.344;14.530;2023-10-09T12:37:42;101124.16;;;14.40;72.94
49055;BME280;35405;52.344;14.530;2023-10-09T12:40:08;101130.28;;;13.72;68.64
49055;BME280;35405;52.344;14.530;2023-10-09T12:42:35;101139.91;;;13.73;71.36
49055;BME280;35405;52.344;14.530;2023-10-09T12:45:00;101140.03;;;13.68;71.16
49055;BME280;35405;52.344;14.530;2023-10-09T12:47:32;101139.94;;;13.71;71.64
49055;BME280;35405;52.344;14.530;2023-10-09T12:49:58;101139.41;;;13.93;71.70
49055;BME280;35405;52.344;14.530;2023-10-09T12:52:23;101134.16;;;13.93;72.92
49055;BME280;35405;52.344;14.530;2023-10-09T12:54:54;101132.63;;;13.84;72.72
49055;BME280;35405;52.344;14.530;2023-10-09T12:57:19;101134.19;;;13.56;72.99
49055;BME280;35405;52.344;14.530;2023-10-09T12:59:45;101125.03;;;13.35;72.91
49055;BME280;35405;52.344;14.530;2023-10-09T13:02:19;101124.19;;;13.34;73.38
49055;BME280;35405;52.344;14.530;2023-10-09T13:04:54;101125.59;;;13.49;73.35
49055;BME280;35405;52.344;14.530;2023-10-09T13:07:19;101123.94;;;13.81;73.39
49055;BME280;35405;52.344;14.530;2023-10-09T13:09:47;101123.63;;;13.93;73.39
49055;BME280;35405;52.344;14.530;2023-10-09T13:12:32;101130.19;;;14.11;73.62
49055;BME280;35405;52.344;14.530;2023-10-09T13:14:57;101133.69;;;14.11;73.76
49055;BME280;35405;52.344;14.530;2023-10-09T13:17:22;101134.44;;;13.82;73.57
49055;BME280;35405;52.344;14.530;2023-10-09T13:19:51;101135.50;;;13.73;72.93
49055;BME280;35405;52.344;14.530;2023-10-09T13:22:17;101134.09;;;13.96;73.32
49055;BME280;35405;52.344;14.530;2023-10-09T13:24:42;101141.78;;;14.02;74.16
49055;BME280;35405;52.344;14.530;2023-10-09T13:27:08;101142.31;;;14.16;73.77